Powell River, Canada
Current Conditions -  °F | °C
As of 7:00 AM on Friday 19 Dec 2014 (Local Time) from CYPW Reporting Station
Light Rain Light Rain  
Wind Chill: 38°   Ceiling: 4500
Heat Index: 45°   Visibility: 15mi
Dew Point: 43°   Wind: 13mph
Humidity: 93%   Direction: 110°ESE
Pressure: 29.74"   Gusts: 22mph
Location:  49.84°N, 124.52°W
Report Text: CYPW 191500Z 11011G19KT 15SM -RA BKN045 OVC080 07/06 A2974 RMK SC7AS1 /R10 AFT 00UTC/ SLP073
Loading
Personal Weather Stations






























Interactive Weather Map New forecast layout! Learn more

10-Day Weather Forecast

Advertisements
Track Severe Weather on mobile